Time;durP1;ratioP1;P1;durP2;ratioP2;P2;SDS_P1;SDS_P2;PMS_P1;PMS_P2;Temp;Humidity;BMP_temperature;BMP_pressure;BME280_temperature;BME280_humidity;BME280_pressure;Samples;Min_cycle;Max_cycle;Signal;HPM_P1;HPM_P2
2021/12/11 00:00:23;;;;;;;43.53;30.35;;;0.70;99.90;;;;;;4995226;28;20053;-76
2021/12/11 00:03:08;;;;;;;43.10;29.23;;;0.70;99.90;;;;;;4995130;28;20506;-76
2021/12/11 00:05:36;;;;;;;48.05;29.85;;;0.60;99.90;;;;;;5012974;28;20093;-76
2021/12/11 00:08:04;;;;;;;41.90;27.42;;;0.70;99.90;;;;;;4994874;28;20050;-76
2021/12/11 00:10:39;;;;;;;43.42;30.42;;;0.70;99.90;;;;;;5013027;28;20143;-76
2021/12/11 00:13:09;;;;;;;37.53;27.25;;;0.70;99.90;;;;;;4995040;28;20061;-76
2021/12/11 00:15:39;;;;;;;43.38;30.52;;;0.70;99.90;;;;;;5012868;28;20038;-76
2021/12/11 00:18:12;;;;;;;39.70;27.55;;;0.70;99.90;;;;;;5013761;28;20050;-76
2021/12/11 00:20:47;;;;;;;39.40;29.33;;;0.70;99.90;;;;;;4999181;28;20475;-76
2021/12/11 00:23:20;;;;;;;37.78;29.17;;;0.70;99.90;;;;;;5016091;28;20129;-76
2021/12/11 00:25:46;;;;;;;37.35;28.40;;;0.90;99.90;;;;;;5016542;28;20056;-75
2021/12/11 00:28:12;;;;;;;38.00;28.50;;;0.80;99.90;;;;;;5015921;28;20382;-76
2021/12/11 00:30:45;;;;;;;39.25;27.70;;;0.80;99.90;;;;;;4998602;28;20054;-76
2021/12/11 00:33:24;;;;;;;38.75;29.08;;;0.90;99.90;;;;;;5016029;28;20124;-76
2021/12/11 00:35:51;;;;;;;40.53;28.58;;;0.90;99.90;;;;;;4998986;28;20046;-76
2021/12/11 00:38:32;;;;;;;41.15;29.15;;;0.80;99.90;;;;;;5015815;28;20394;-76
2021/12/11 00:40:58;;;;;;;43.80;30.13;;;0.80;99.90;;;;;;5016262;28;20050;-75
2021/12/11 00:43:29;;;;;;;41.42;30.77;;;0.80;99.90;;;;;;5015698;28;20119;-76
2021/12/11 00:45:55;;;;;;;45.92;33.33;;;0.80;99.90;;;;;;5016063;28;20133;-76
2021/12/11 00:48:24;;;;;;;46.42;33.53;;;0.70;99.90;;;;;;4998065;28;20440;-75
2021/12/11 00:51:04;;;;;;;50.88;34.13;;;0.70;99.90;;;;;;5015959;28;20077;-75
2021/12/11 00:53:37;;;;;;;49.10;34.63;;;0.60;99.90;;;;;;5016173;28;20041;-75
2021/12/11 00:56:12;;;;;;;44.60;31.25;;;0.60;99.90;;;;;;5015822;28;20088;-75
2021/12/11 00:58:39;;;;;;;41.45;30.42;;;0.60;99.90;;;;;;5015717;28;20125;-75
2021/12/11 01:01:08;;;;;;;41.15;30.30;;;0.70;99.90;;;;;;5015491;28;20513;-75
2021/12/11 01:03:33;;;;;;;43.15;30.55;;;0.70;99.90;;;;;;5015562;28;20141;-75
2021/12/11 01:06:05;;;;;;;38.30;30.10;;;0.60;99.90;;;;;;5015828;28;20137;-75
2021/12/11 01:08:36;;;;;;;54.95;36.97;;;0.60;99.90;;;;;;5015436;28;20120;-75
2021/12/11 01:11:16;;;;;;;48.90;34.35;;;0.60;99.90;;;;;;5015399;28;20136;-75
2021/12/11 01:13:48;;;;;;;44.28;32.03;;;0.50;99.90;;;;;;5015423;28;20119;-75
2021/12/11 01:16:16;;;;;;;43.50;30.88;;;0.60;99.90;;;;;;5015320;28;20137;-75
2021/12/11 01:18:48;;;;;;;44.72;33.45;;;0.60;99.90;;;;;;5015249;28;20497;-75
2021/12/11 01:24:11;;;;;;;38.83;28.75;;;0.60;99.90;;;;;;5015215;28;20049;-75
2021/12/11 01:26:49;;;;;;;41.75;30.95;;;0.50;99.90;;;;;;5015050;28;20557;-75
2021/12/11 01:29:18;;;;;;;41.80;30.15;;;0.50;99.90;;;;;;5014420;28;20092;-75
2021/12/11 01:31:45;;;;;;;39.70;30.50;;;0.50;99.90;;;;;;5015153;28;20093;-75
2021/12/11 01:34:11;;;;;;;45.58;31.33;;;0.50;99.90;;;;;;5014856;28;20045;-76
2021/12/11 01:36:38;;;;;;;40.70;29.70;;;0.50;99.90;;;;;;4997940;28;20044;-75
2021/12/11 01:39:09;;;;;;;43.95;29.27;;;0.50;99.90;;;;;;5014882;28;20490;-75
2021/12/11 01:41:35;;;;;;;36.55;27.55;;;0.60;99.90;;;;;;5015199;28;20049;-75
2021/12/11 01:44:16;;;;;;;36.65;28.67;;;0.40;99.90;;;;;;5015231;28;20052;-75
2021/12/11 01:46:43;;;;;;;37.90;28.42;;;0.40;99.90;;;;;;5015064;28;20053;-75
2021/12/11 01:49:14;;;;;;;39.45;27.95;;;0.40;99.90;;;;;;5014569;28;20049;-75
2021/12/11 01:51:48;;;;;;;33.50;26.10;;;0.40;99.90;;;;;;4997268;28;20125;-75
2021/12/11 01:54:19;;;;;;;32.85;26.45;;;0.40;99.90;;;;;;5014382;28;20058;-75
2021/12/11 01:56:52;;;;;;;34.15;25.20;;;0.30;99.90;;;;;;5014700;28;20046;-75
2021/12/11 01:59:25;;;;;;;32.33;25.02;;;0.30;99.90;;;;;;5014294;28;20052;-76
2021/12/11 02:02:12;;;;;;;32.75;24.95;;;0.30;99.90;;;;;;5014649;28;20053;-75
2021/12/11 02:04:44;;;;;;;29.85;23.30;;;0.30;99.90;;;;;;4997477;28;20041;-75
2021/12/11 02:07:17;;;;;;;35.33;25.13;;;0.30;99.90;;;;;;5014608;28;20053;-75
2021/12/11 02:09:50;;;;;;;35.50;25.05;;;0.30;99.90;;;;;;5014668;28;20046;-75
2021/12/11 02:12:20;;;;;;;31.55;24.10;;;0.30;99.90;;;;;;5014302;28;20145;-75
2021/12/11 02:14:51;;;;;;;30.80;23.17;;;0.40;99.90;;;;;;5014669;28;20386;-75
2021/12/11 02:17:22;;;;;;;31.38;23.15;;;0.30;99.90;;;;;;5013897;28;20042;-76
2021/12/11 02:19:49;;;;;;;30.83;23.70;;;0.30;99.90;;;;;;5014251;28;20046;-75
2021/12/11 02:22:20;;;;;;;31.80;23.30;;;0.20;99.90;;;;;;5013954;28;20053;-75
2021/12/11 02:24:54;;;;;;;31.85;22.48;;;0.20;99.90;;;;;;5014332;28;20046;-75
2021/12/11 02:27:30;;;;;;;29.60;22.33;;;0.10;99.90;;;;;;5013903;28;20046;-75
2021/12/11 02:30:19;;;;;;;30.25;21.52;;;0.20;99.90;;;;;;4997061;28;20049;-75
2021/12/11 02:32:57;;;;;;;31.27;21.20;;;0.10;99.90;;;;;;5014222;28;20050;-75
2021/12/11 02:35:37;;;;;;;31.13;21.15;;;0.10;99.90;;;;;;5013962;28;20466;-75
2021/12/11 02:38:27;;;;;;;32.15;21.67;;;0.10;99.90;;;;;;5013897;28;20475;-75
2021/12/11 02:41:04;;;;;;;30.00;21.10;;;0.10;99.90;;;;;;5013199;28;20162;-75
2021/12/11 02:43:34;;;;;;;29.58;21.90;;;0.10;99.90;;;;;;5013556;28;20046;-75
2021/12/11 02:46:07;;;;;;;23.90;18.58;;;0.10;99.90;;;;;;5013932;28;20046;-75
2021/12/11 02:48:58;;;;;;;29.35;21.20;;;0.10;99.90;;;;;;5013358;28;20037;-75
2021/12/11 02:51:35;;;;;;;29.70;18.50;;;0.10;99.90;;;;;;5005240;28;20053;-75
2021/12/11 02:54:23;;;;;;;28.42;20.52;;;0.10;99.90;;;;;;5013501;28;20557;-75
2021/12/11 02:56:55;;;;;;;28.85;19.52;;;0.10;99.90;;;;;;5013751;28;20053;-75
2021/12/11 02:59:25;;;;;;;27.40;19.13;;;0.10;99.90;;;;;;5013429;28;20049;-75
2021/12/11 03:02:05;;;;;;;27.05;18.98;;;0.10;99.90;;;;;;5013632;28;20125;-75
2021/12/11 03:04:37;;;;;;;26.58;18.75;;;0.10;99.90;;;;;;5013423;28;20041;-75
2021/12/11 03:07:08;;;;;;;27.52;18.77;;;0.10;99.90;;;;;;5013612;28;20198;-75
2021/12/11 03:09:38;;;;;;;22.85;16.40;;;0.20;99.90;;;;;;5013107;28;20501;-75
2021/12/11 03:12:09;;;;;;;27.00;19.40;;;0.10;99.90;;;;;;5013027;28;20073;-75
2021/12/11 03:14:36;;;;;;;24.90;17.55;;;0.10;99.90;;;;;;5013056;28;20042;-75
2021/12/11 03:17:03;;;;;;;24.90;18.08;;;0.00;99.90;;;;;;5013727;28;20046;-75
2021/12/11 03:19:33;;;;;;;24.15;17.73;;;0.00;99.90;;;;;;5013127;28;20088;-75
2021/12/11 03:22:01;;;;;;;23.75;17.40;;;0.00;99.90;;;;;;5013682;28;20068;-75
2021/12/11 03:24:29;;;;;;;24.25;17.77;;;-0.10;99.90;;;;;;5013111;28;20045;-75
2021/12/11 03:26:56;;;;;;;26.23;17.50;;;0.00;99.90;;;;;;5012939;28;20486;-75
2021/12/11 03:29:22;;;;;;;27.75;17.40;;;-0.10;99.90;;;;;;5012832;28;20064;-75
2021/12/11 03:31:48;;;;;;;24.48;17.80;;;-0.10;99.90;;;;;;5013476;28;20096;-75
2021/12/11 03:34:20;;;;;;;25.33;16.77;;;-0.10;99.90;;;;;;5013189;28;20053;-75
2021/12/11 03:36:46;;;;;;;23.45;16.48;;;0.00;99.90;;;;;;4995563;28;20079;-75
2021/12/11 03:39:26;;;;;;;23.10;16.63;;;-0.10;99.90;;;;;;5013136;28;20513;-75
2021/12/11 03:41:54;;;;;;;25.10;17.13;;;-0.10;99.90;;;;;;5013262;28;20049;-75
2021/12/11 03:44:20;;;;;;;23.27;15.43;;;-0.10;99.90;;;;;;5012775;28;20100;-75
2021/12/11 03:46:52;;;;;;;26.70;16.92;;;-0.10;99.90;;;;;;5012631;28;20042;-75
2021/12/11 03:49:22;;;;;;;23.52;16.95;;;-0.10;99.90;;;;;;5013151;28;20081;-75
2021/12/11 03:51:50;;;;;;;21.52;16.02;;;-0.10;99.90;;;;;;5013911;28;20037;-75
2021/12/11 03:54:23;;;;;;;21.73;15.45;;;-0.10;99.90;;;;;;5017051;28;20403;-75
2021/12/11 03:56:50;;;;;;;24.85;17.08;;;-0.10;99.90;;;;;;5017122;28;20456;-75
2021/12/11 03:59:16;;;;;;;25.55;18.00;;;-0.20;99.90;;;;;;5016958;28;20045;-75
2021/12/11 04:01:51;;;;;;;22.83;16.05;;;-0.20;99.90;;;;;;5016503;28;20402;-75
2021/12/11 04:04:29;;;;;;;21.33;16.07;;;-0.20;99.90;;;;;;5016888;28;20060;-75
2021/12/11 04:06:56;;;;;;;26.17;17.00;;;-0.20;99.90;;;;;;5016653;28;20049;-75
2021/12/11 04:09:24;;;;;;;21.25;15.65;;;-0.30;99.90;;;;;;5016740;28;20089;-75
2021/12/11 04:11:51;;;;;;;25.73;17.58;;;-0.20;99.90;;;;;;5016449;28;20062;-75
2021/12/11 04:14:27;;;;;;;23.92;15.48;;;-0.20;99.90;;;;;;5016564;28;20486;-75
2021/12/11 04:16:54;;;;;;;26.08;16.90;;;-0.10;99.90;;;;;;5017326;28;20050;-75
2021/12/11 04:19:20;;;;;;;24.45;15.57;;;-0.20;99.90;;;;;;5016445;28;20045;-75
2021/12/11 04:21:47;;;;;;;27.40;18.38;;;-0.20;99.90;;;;;;5016279;28;20042;-75
2021/12/11 04:24:14;;;;;;;25.48;17.77;;;-0.30;99.90;;;;;;5016237;28;20081;-75
2021/12/11 04:26:41;;;;;;;27.38;17.77;;;-0.30;99.90;;;;;;5015906;28;20049;-75
2021/12/11 04:29:08;;;;;;;24.60;16.67;;;-0.30;99.90;;;;;;5016326;28;20037;-75
2021/12/11 04:31:41;;;;;;;25.13;15.88;;;-0.20;99.90;;;;;;5015967;28;20072;-75
2021/12/11 04:34:07;;;;;;;25.17;15.93;;;-0.30;99.90;;;;;;5016626;28;20061;-75
2021/12/11 04:36:44;;;;;;;24.50;16.63;;;-0.20;99.90;;;;;;5015904;28;20123;-75
2021/12/11 04:39:12;;;;;;;21.85;15.70;;;-0.30;99.90;;;;;;5016211;28;20068;-75
2021/12/11 04:41:49;;;;;;;25.00;17.30;;;-0.30;99.90;;;;;;5015741;28;20108;-75
2021/12/11 04:44:28;;;;;;;22.75;15.70;;;-0.30;99.90;;;;;;5016110;28;20141;-75
2021/12/11 04:46:53;;;;;;;25.77;15.68;;;-0.30;99.90;;;;;;5016182;28;20045;-75
2021/12/11 04:49:48;;;;;;;25.10;14.80;;;-0.30;99.90;;;;;;5015896;28;20056;-74
2021/12/11 04:52:18;;;;;;;23.80;16.17;;;-0.30;99.90;;;;;;5015100;28;20045;-74
2021/12/11 04:55:30;;;;;;;24.48;17.05;;;-0.30;99.90;;;;;;5015486;28;20050;-75
2021/12/11 05:05:52;;;;;;;20.37;14.30;;;-0.30;99.90;;;;;;5015201;28;20054;-74
2021/12/11 05:11:01;;;;;;;21.25;15.32;;;-0.20;99.90;;;;;;5014923;28;20461;-75
2021/12/11 05:13:28;;;;;;;24.08;16.45;;;-0.20;99.90;;;;;;5015397;28;20050;-75
2021/12/11 05:15:57;;;;;;;23.58;16.55;;;-0.30;99.90;;;;;;4997828;28;20065;-75
2021/12/11 05:18:29;;;;;;;24.48;17.08;;;-0.40;99.90;;;;;;5015383;28;20046;-75
2021/12/11 05:20:58;;;;;;;24.23;16.98;;;-0.40;99.90;;;;;;5015162;28;20104;-75
2021/12/11 05:23:24;;;;;;;22.75;15.82;;;-0.50;99.90;;;;;;5015503;28;20079;-75
2021/12/11 05:25:51;;;;;;;24.63;16.40;;;-0.50;99.90;;;;;;4981643;28;20100;-75
2021/12/11 05:28:18;;;;;;;23.17;14.82;;;-0.40;99.90;;;;;;5015109;28;20125;-74
2021/12/11 05:30:47;;;;;;;24.23;15.43;;;-0.40;99.90;;;;;;5014740;28;20482;-75
2021/12/11 05:33:13;;;;;;;26.73;16.55;;;-0.40;99.90;;;;;;5015169;28;20054;-75
2021/12/11 05:35:41;;;;;;;25.42;16.83;;;-0.40;99.90;;;;;;5014697;28;20046;-75
2021/12/11 05:38:10;;;;;;;25.13;15.40;;;-0.40;99.90;;;;;;5015093;28;20038;-74
2021/12/11 05:40:42;;;;;;;21.98;15.55;;;-0.40;99.90;;;;;;4997132;28;20041;-75
2021/12/11 05:43:08;;;;;;;20.92;15.32;;;-0.40;99.90;;;;;;5014791;28;20501;-75
2021/12/11 05:45:36;;;;;;;22.58;15.88;;;-0.40;99.90;;;;;;4980735;28;20418;-76
2021/12/11 05:48:02;;;;;;;26.67;17.63;;;-0.50;99.90;;;;;;5014688;28;20042;-75
2021/12/11 05:50:36;;;;;;;23.10;16.92;;;-0.50;99.90;;;;;;5014426;28;20482;-75
2021/12/11 05:53:02;;;;;;;23.40;17.15;;;-0.50;99.90;;;;;;5014921;28;20054;-75
2021/12/11 05:55:30;;;;;;;28.27;18.10;;;-0.50;99.90;;;;;;5014650;28;20057;-75
2021/12/11 05:58:00;;;;;;;24.48;16.42;;;-0.50;99.90;;;;;;4996944;28;20084;-75
2021/12/11 06:00:38;;;;;;;26.40;16.95;;;-0.50;99.90;;;;;;5014451;28;20042;-75
2021/12/11 06:03:04;;;;;;;22.23;15.98;;;-0.50;99.90;;;;;;5014813;28;20045;-75
2021/12/11 06:05:31;;;;;;;28.02;17.35;;;-0.50;99.90;;;;;;4997014;28;20394;-75
2021/12/11 06:07:57;;;;;;;25.33;15.43;;;-0.50;99.90;;;;;;4996444;28;20046;-75
2021/12/11 06:10:24;;;;;;;26.42;16.85;;;-0.60;99.90;;;;;;5014309;28;20042;-75
2021/12/11 06:12:53;;;;;;;23.13;16.05;;;-0.60;99.90;;;;;;5013639;28;20050;-75
2021/12/11 06:15:20;;;;;;;22.35;15.80;;;-0.60;99.90;;;;;;5014176;28;20060;-75
2021/12/11 06:17:46;;;;;;;24.38;15.35;;;-0.60;99.90;;;;;;4996560;28;20054;-75
2021/12/11 06:20:16;;;;;;;27.88;16.27;;;-0.50;99.90;;;;;;5014161;28;20072;-75
2021/12/11 06:22:42;;;;;;;22.38;15.45;;;-0.60;99.90;;;;;;5013841;28;20050;-75
2021/12/11 06:25:15;;;;;;;21.15;15.20;;;-0.60;99.90;;;;;;4996726;28;20050;-75
2021/12/11 06:27:41;;;;;;;24.63;15.65;;;-0.60;99.90;;;;;;5013798;28;20085;-75
2021/12/11 06:30:09;;;;;;;19.80;14.95;;;-0.70;99.90;;;;;;4996332;28;20054;-75
2021/12/11 06:32:35;;;;;;;24.85;16.33;;;-0.70;99.90;;;;;;5013911;28;20045;-75
2021/12/11 06:35:07;;;;;;;24.03;14.87;;;-0.70;99.90;;;;;;5013620;28;20042;-75
2021/12/11 06:37:32;;;;;;;22.33;16.50;;;-0.70;99.90;;;;;;4996676;28;20085;-75
2021/12/11 06:39:58;;;;;;;25.13;15.90;;;-0.60;99.90;;;;;;5013479;28;20152;-75
2021/12/11 06:42:24;;;;;;;22.97;15.90;;;-0.70;99.90;;;;;;5013704;28;20045;-75
2021/12/11 06:44:50;;;;;;;27.83;16.37;;;-0.70;99.90;;;;;;5013415;28;20046;-75
2021/12/11 06:47:16;;;;;;;28.90;17.63;;;-0.70;99.90;;;;;;4996289;28;20049;-75
2021/12/11 06:49:43;;;;;;;26.00;16.98;;;-0.80;99.90;;;;;;4995775;28;20045;-75
2021/12/11 06:52:13;;;;;;;27.63;16.63;;;-0.80;99.90;;;;;;5013828;28;20128;-74
2021/12/11 06:54:39;;;;;;;22.02;16.27;;;-0.70;99.90;;;;;;4996102;28;20367;-75
2021/12/11 06:57:05;;;;;;;23.57;15.90;;;-0.70;99.90;;;;;;4995691;28;20049;-75
2021/12/11 06:59:31;;;;;;;24.55;17.65;;;-0.70;99.90;;;;;;4995791;28;20560;-75
2021/12/11 07:01:57;;;;;;;23.33;16.50;;;-0.70;99.90;;;;;;5013021;28;20050;-75
2021/12/11 07:04:23;;;;;;;25.20;16.97;;;-0.70;99.90;;;;;;5013306;28;20052;-75
2021/12/11 07:06:51;;;;;;;23.73;16.30;;;-0.70;99.90;;;;;;5012784;28;20085;-75
2021/12/11 07:09:23;;;;;;;25.75;17.33;;;-0.70;99.90;;;;;;4996167;28;20597;-76
2021/12/11 07:11:51;;;;;;;26.08;17.88;;;-0.70;99.90;;;;;;5013054;28;20061;-76
2021/12/11 07:14:19;;;;;;;23.20;16.33;;;-0.70;99.90;;;;;;5013075;28;20053;-75
2021/12/11 07:16:45;;;;;;;26.80;16.48;;;-0.70;99.90;;;;;;5012790;28;20084;-75
2021/12/11 07:19:12;;;;;;;25.27;17.90;;;-0.70;99.90;;;;;;4995792;28;20046;-75
2021/12/11 07:21:39;;;;;;;26.05;16.45;;;-0.70;99.90;;;;;;5013006;28;20088;-75
2021/12/11 07:24:10;;;;;;;31.05;18.70;;;-0.70;99.90;;;;;;4995388;28;20078;-76
2021/12/11 07:26:36;;;;;;;36.05;24.58;;;-0.70;99.90;;;;;;5012655;28;20085;-76
2021/12/11 07:29:10;;;;;;;44.80;28.50;;;-0.80;99.90;;;;;;5012626;28;20092;-76
2021/12/11 07:31:38;;;;;;;32.78;23.02;;;-0.80;99.90;;;;;;4995740;28;20050;-75
2021/12/11 07:34:04;;;;;;;36.63;26.10;;;-0.80;99.90;;;;;;5012679;28;20046;-75
2021/12/11 07:36:30;;;;;;;26.85;18.85;;;-0.70;99.90;;;;;;5012931;28;20431;-75
2021/12/11 07:38:59;;;;;;;25.38;18.73;;;-0.70;99.90;;;;;;5012687;28;20057;-75
2021/12/11 07:41:25;;;;;;;25.90;18.25;;;-0.70;99.90;;;;;;5013079;28;20057;-75
2021/12/11 07:43:51;;;;;;;25.70;18.08;;;-0.70;99.90;;;;;;4995384;28;20057;-75
2021/12/11 07:46:24;;;;;;;26.33;16.70;;;-0.70;99.90;;;;;;5013172;28;20041;-75
2021/12/11 07:48:50;;;;;;;27.40;17.25;;;-0.70;99.90;;;;;;4995148;28;20050;-75
2021/12/11 07:51:18;;;;;;;27.13;17.77;;;-0.70;99.90;;;;;;5013077;28;20049;-76
2021/12/11 07:53:45;;;;;;;24.00;16.13;;;-0.70;99.90;;;;;;5012842;28;20053;-76
2021/12/11 07:56:11;;;;;;;29.65;18.80;;;-0.70;99.90;;;;;;4995355;28;20525;-76
2021/12/11 07:58:37;;;;;;;24.35;16.67;;;-0.70;99.90;;;;;;4995492;28;20061;-75
2021/12/11 08:01:06;;;;;;;26.42;16.83;;;-0.70;99.90;;;;;;5012506;28;20429;-76
2021/12/11 08:03:32;;;;;;;26.08;17.35;;;-0.70;99.90;;;;;;5012772;28;20046;-79
2021/12/11 08:05:58;;;;;;;26.17;18.63;;;-0.70;99.90;;;;;;5012474;28;20046;-76
2021/12/11 08:08:25;;;;;;;24.63;16.80;;;-0.70;99.90;;;;;;5012628;28;20135;-76
2021/12/11 08:10:57;;;;;;;25.23;17.75;;;-0.70;99.90;;;;;;5012382;28;20373;-74
2021/12/11 08:13:24;;;;;;;28.70;18.40;;;-0.70;99.90;;;;;;5012899;28;20427;-75
2021/12/11 08:15:50;;;;;;;31.10;19.90;;;-0.70;99.90;;;;;;4994646;28;20058;-74
2021/12/11 08:18:17;;;;;;;31.67;22.75;;;-0.60;99.90;;;;;;5012661;28;20054;-75
2021/12/11 08:20:45;;;;;;;31.70;22.05;;;-0.60;99.90;;;;;;4995099;28;20046;-76
2021/12/11 08:23:12;;;;;;;34.17;23.38;;;-0.60;99.90;;;;;;5012300;28;20084;-76
2021/12/11 08:25:39;;;;;;;29.38;20.80;;;-0.60;99.90;;;;;;5012640;28;20054;-74
2021/12/11 08:28:08;;;;;;;32.20;21.73;;;-0.60;99.90;;;;;;5012075;28;20048;-73
2021/12/11 08:30:36;;;;;;;68.68;26.75;;;-0.50;99.90;;;;;;5012482;28;20053;-76
2021/12/11 08:33:03;;;;;;;42.85;22.38;;;-0.40;99.90;;;;;;4994736;28;20124;-75
2021/12/11 08:35:29;;;;;;;59.28;24.90;;;-0.40;99.90;;;;;;5012470;28;20054;-75
2021/12/11 08:37:55;;;;;;;49.20;23.77;;;-0.30;99.90;;;;;;5012193;28;20103;-74
2021/12/11 08:40:27;;;;;;;45.33;25.70;;;-0.40;99.90;;;;;;5015530;28;20363;-74
2021/12/11 08:42:53;;;;;;;56.13;25.63;;;-0.30;99.90;;;;;;5015902;28;20042;-75
2021/12/11 08:45:24;;;;;;;59.15;26.67;;;-0.30;99.90;;;;;;5016138;28;20062;-75
2021/12/11 08:47:54;;;;;;;92.07;28.35;;;-0.20;99.90;;;;;;4998633;28;20052;-75
2021/12/11 08:50:24;;;;;;;76.85;28.13;;;-0.10;99.90;;;;;;5015842;28;20620;-75
2021/12/11 08:52:52;;;;;;;76.70;28.08;;;-0.10;99.90;;;;;;5015971;28;20129;-75
2021/12/11 08:55:32;;;;;;;91.90;35.45;;;0.00;99.90;;;;;;5015764;28;20046;-75
2021/12/11 08:57:59;;;;;;;84.25;31.10;;;0.00;99.90;;;;;;4998216;28;20123;-76
2021/12/11 09:00:36;;;;;;;64.40;30.00;;;0.10;99.90;;;;;;5015558;28;20088;-75
2021/12/11 09:03:17;;;;;;;133.85;32.90;;;0.10;99.90;;;;;;5015466;28;20216;-75
2021/12/11 09:05:55;;;;;;;58.00;27.08;;;0.20;99.90;;;;;;5015575;28;20045;-75
2021/12/11 09:08:42;;;;;;;40.55;25.73;;;0.20;99.90;;;;;;5015405;28;20198;-75
2021/12/11 09:11:13;;;;;;;49.58;25.13;;;0.20;99.90;;;;;;4997635;28;20370;-74
2021/12/11 09:13:45;;;;;;;54.13;27.98;;;0.20;99.90;;;;;;5015494;28;20569;-73
2021/12/11 09:16:18;;;;;;;55.13;27.27;;;0.30;99.90;;;;;;5015084;28;20053;-76
2021/12/11 09:19:01;;;;;;;68.55;27.77;;;0.30;99.90;;;;;;5015475;28;20049;-75
2021/12/11 09:21:45;;;;;;;72.72;28.25;;;0.30;99.90;;;;;;5015278;28;20131;-75
2021/12/11 09:24:26;;;;;;;51.53;27.67;;;0.40;99.90;;;;;;5014237;28;20100;-75
2021/12/11 09:26:59;;;;;;;36.97;24.60;;;0.50;99.90;;;;;;5014960;28;20497;-75
2021/12/11 09:29:37;;;;;;;46.60;26.60;;;0.40;99.90;;;;;;5015129;28;20077;-73
2021/12/11 09:32:03;;;;;;;56.72;27.52;;;0.40;99.90;;;;;;5014834;28;20054;-73
2021/12/11 09:34:37;;;;;;;40.20;22.70;;;0.40;99.90;;;;;;4997905;28;20049;-73
2021/12/11 09:37:06;;;;;;;41.28;23.77;;;0.50;99.90;;;;;;4997496;28;20050;-73
2021/12/11 09:39:34;;;;;;;64.13;24.05;;;0.50;99.90;;;;;;5014898;28;20042;-73
2021/12/11 09:42:00;;;;;;;54.00;25.75;;;0.50;99.90;;;;;;5014446;28;20132;-74
2021/12/11 09:44:33;;;;;;;44.80;24.87;;;0.50;99.90;;;;;;5014769;28;20092;-73
2021/12/11 09:47:22;;;;;;;78.65;34.03;;;0.50;99.90;;;;;;5014541;28;20046;-74
2021/12/11 09:49:58;;;;;;;53.00;27.67;;;0.60;99.90;;;;;;5014715;28;20126;-73
2021/12/11 09:52:26;;;;;;;53.72;26.20;;;0.50;99.90;;;;;;5014805;28;20081;-73
2021/12/11 09:54:57;;;;;;;68.95;29.58;;;0.50;99.90;;;;;;5014618;28;20068;-78
2021/12/11 09:57:26;;;;;;;41.10;22.83;;;0.60;99.90;;;;;;5014538;28;20049;-75
2021/12/11 09:59:56;;;;;;;45.20;23.00;;;0.60;99.90;;;;;;5014722;28;20448;-74
2021/12/11 10:02:27;;;;;;;49.17;23.10;;;0.60;99.90;;;;;;5017886;28;20042;-74
2021/12/11 10:05:17;;;;;;;45.97;21.75;;;0.60;99.90;;;;;;5023211;28;20068;-73
2021/12/11 10:08:01;;;;;;;42.47;22.98;;;0.60;99.90;;;;;;5026299;28;20053;-74
2021/12/11 10:10:27;;;;;;;40.78;23.30;;;0.70;99.90;;;;;;5034388;28;20147;-73
2021/12/11 10:12:56;;;;;;;40.57;21.93;;;0.70;99.90;;;;;;5034131;28;20108;-75
2021/12/11 10:15:41;;;;;;;42.03;23.15;;;0.70;99.90;;;;;;5033723;28;20049;-74
2021/12/11 10:18:14;;;;;;;32.65;21.35;;;0.80;99.90;;;;;;5033748;28;20092;-74
2021/12/11 10:20:42;;;;;;;42.60;22.17;;;0.80;99.90;;;;;;5016473;28;20401;-78
2021/12/11 10:23:15;;;;;;;30.15;20.98;;;0.90;99.90;;;;;;5033508;28;20080;-73
2021/12/11 10:25:43;;;;;;;52.85;23.70;;;0.90;99.90;;;;;;5034030;28;20060;-74
2021/12/11 10:28:11;;;;;;;78.82;24.50;;;0.90;99.90;;;;;;5033412;28;20084;-74
2021/12/11 10:30:44;;;;;;;59.03;24.73;;;0.90;99.90;;;;;;5033704;28;20050;-73
2021/12/11 10:33:11;;;;;;;46.03;23.75;;;0.90;99.90;;;;;;5033848;28;20389;-75
2021/12/11 10:35:42;;;;;;;45.85;24.33;;;0.90;99.90;;;;;;5033648;28;20051;-75
2021/12/11 10:38:09;;;;;;;36.33;22.70;;;1.00;99.90;;;;;;5033328;28;20050;-74
2021/12/11 10:40:44;;;;;;;43.53;24.70;;;1.10;99.90;;;;;;5033477;28;20046;-74
2021/12/11 10:43:59;;;;;;;33.53;22.23;;;1.00;99.90;;;;;;5015509;28;20045;-75
2021/12/11 10:46:30;;;;;;;36.97;23.05;;;1.10;99.90;;;;;;5019903;28;20045;-74
2021/12/11 10:48:57;;;;;;;38.78;22.30;;;1.10;99.90;;;;;;5033480;28;20045;-75
2021/12/11 10:51:30;;;;;;;33.95;22.38;;;1.10;99.90;;;;;;5033036;28;20113;-74
2021/12/11 10:53:57;;;;;;;34.78;21.48;;;1.20;99.90;;;;;;5033249;28;20111;-76
2021/12/11 10:56:25;;;;;;;41.70;24.35;;;1.20;99.90;;;;;;5032941;28;20257;-75
2021/12/11 10:59:11;;;;;;;34.13;21.45;;;1.30;99.90;;;;;;5015711;28;20440;-76
2021/12/11 11:01:46;;;;;;;31.75;22.98;;;1.30;99.90;;;;;;5032770;28;20053;-75
2021/12/11 11:04:19;;;;;;;38.50;21.55;;;1.50;99.90;;;;;;5032871;28;20089;-75
2021/12/11 11:06:45;;;;;;;36.13;23.30;;;1.70;99.90;;;;;;5033129;28;20045;-74
2021/12/11 11:09:13;;;;;;;39.53;22.67;;;1.50;99.90;;;;;;5032717;28;20049;-75
2021/12/11 11:11:40;;;;;;;34.75;23.00;;;1.80;99.90;;;;;;5015010;28;20445;-75
2021/12/11 11:14:10;;;;;;;37.40;23.30;;;1.80;99.90;;;;;;5032751;28;20466;-75
2021/12/11 11:16:38;;;;;;;37.17;22.95;;;1.90;99.90;;;;;;5032964;28;20052;-73
2021/12/11 11:19:04;;;;;;;39.60;23.65;;;1.90;99.90;;;;;;5033019;28;20045;-75
2021/12/11 11:21:40;;;;;;;36.93;23.40;;;1.90;99.90;;;;;;5032649;28;20076;-70
2021/12/11 11:24:07;;;;;;;42.47;26.80;;;1.90;99.90;;;;;;5033104;28;20406;-75
2021/12/11 11:26:39;;;;;;;40.83;26.42;;;1.90;99.90;;;;;;5015751;28;20398;-74
2021/12/11 11:29:10;;;;;;;36.17;24.02;;;1.90;99.90;;;;;;5032760;28;20047;-74
2021/12/11 11:31:38;;;;;;;35.17;23.27;;;2.10;99.90;;;;;;5032698;28;20490;-73
2021/12/11 11:34:08;;;;;;;40.28;24.60;;;2.40;99.90;;;;;;5032847;28;20056;-72
2021/12/11 11:36:35;;;;;;;32.90;22.90;;;2.20;99.90;;;;;;5015566;28;20504;-73
2021/12/11 11:39:08;;;;;;;35.40;25.35;;;2.10;99.90;;;;;;5033149;28;20050;-73
2021/12/11 11:41:40;;;;;;;40.80;25.58;;;2.40;99.90;;;;;;5015668;28;20061;-72
2021/12/11 11:44:07;;;;;;;40.33;24.65;;;1.90;99.90;;;;;;5032855;28;20076;-71
2021/12/11 11:46:36;;;;;;;43.05;27.42;;;1.90;99.90;;;;;;5032628;28;20050;-73
2021/12/11 11:49:03;;;;;;;45.25;28.25;;;2.00;99.90;;;;;;5032707;28;20052;-74
2021/12/11 11:51:44;;;;;;;42.20;26.13;;;1.90;99.90;;;;;;5032390;28;20092;-73
2021/12/11 11:54:14;;;;;;;44.35;27.45;;;1.90;99.90;;;;;;5032296;28;20109;-75
2021/12/11 11:56:48;;;;;;;46.58;29.00;;;2.10;99.90;;;;;;5033006;28;20393;-81
2021/12/11 11:59:14;;;;;;;49.40;29.90;;;2.00;99.90;;;;;;5014517;28;20497;-79
2021/12/11 12:01:51;;;;;;;50.33;29.33;;;2.20;99.90;;;;;;5032655;28;20045;-80
2021/12/11 12:04:19;;;;;;;44.30;26.95;;;1.90;99.90;;;;;;5032325;28;20080;-78
2021/12/11 12:06:53;;;;;;;46.13;28.77;;;2.10;99.90;;;;;;5015088;28;20183;-73
2021/12/11 12:09:23;;;;;;;49.35;29.80;;;2.10;99.90;;;;;;5014771;28;20398;-78
2021/12/11 12:11:49;;;;;;;43.20;27.85;;;2.20;99.90;;;;;;5032575;28;20061;-73
2021/12/11 12:14:19;;;;;;;49.00;29.67;;;2.20;99.90;;;;;;5035476;28;20480;-74
2021/12/11 12:16:46;;;;;;;43.13;27.50;;;2.30;99.90;;;;;;5036250;28;20041;-73
2021/12/11 12:19:14;;;;;;;49.90;29.38;;;2.30;99.90;;;;;;5035934;28;20045;-74
2021/12/11 12:21:42;;;;;;;45.05;27.52;;;2.20;99.90;;;;;;5036273;28;20080;-74
2021/12/11 12:24:08;;;;;;;52.20;30.67;;;2.30;99.90;;;;;;5018952;28;20068;-73
2021/12/11 12:26:36;;;;;;;54.00;28.90;;;2.20;99.90;;;;;;5035962;28;20049;-72
2021/12/11 12:29:04;;;;;;;54.22;30.85;;;2.30;99.90;;;;;;5036060;28;20389;-75
2021/12/11 12:31:37;;;;;;;50.42;29.77;;;2.40;99.90;;;;;;5036133;28;20053;-79
2021/12/11 12:34:03;;;;;;;51.22;30.30;;;2.40;99.90;;;;;;5018857;28;20049;-76
2021/12/11 12:36:30;;;;;;;58.45;31.48;;;2.50;99.90;;;;;;5035908;28;20041;-76
2021/12/11 12:38:57;;;;;;;53.92;30.55;;;2.60;99.90;;;;;;5036013;28;20077;-74
2021/12/11 12:41:28;;;;;;;55.17;30.02;;;;;;;;;;5035492;28;20045;-75
2021/12/11 12:46:37;;;;;;;51.10;29.33;;;;;;;;;;5035454;28;20160;-72
2021/12/11 12:49:04;;;;;;;49.53;29.45;;;;;;;;;;5018206;28;20068;-77
2021/12/11 12:51:30;;;;;;;56.97;31.30;;;;;;;;;;5035565;28;20041;-77
2021/12/11 12:53:57;;;;;;;53.92;30.45;;;;;;;;;;5018130;28;20050;-77
2021/12/11 12:56:28;;;;;;;51.33;30.65;;;;;;;;;;5035298;28;20060;-79
2021/12/11 12:59:07;;;;;;;55.95;32.08;;;;;;;;;;5035373;28;20485;-75
2021/12/11 13:01:36;;;;;;;55.67;31.15;;;;;;;;;;5035438;28;20394;-76
2021/12/11 13:04:05;;;;;;;54.15;30.40;;;;;;;;;;5035512;28;20132;-74
2021/12/11 13:06:34;;;;;;;57.80;31.88;;;;;;;;;;5035005;28;20049;-72
2021/12/11 13:09:08;;;;;;;62.20;33.70;;;;;;;;;;5036015;28;20057;-73